createdAt,value
2023-03-06T00:01:48.901Z,4.43
2023-03-06T00:04:51.532Z,3.97
2023-03-06T00:07:54.061Z,4.60
2023-03-06T00:10:57.352Z,4.32
2023-03-06T00:13:59.774Z,4.13
2023-03-06T00:17:02.220Z,4.63
2023-03-06T00:20:07.114Z,3.78
2023-03-06T00:23:10.263Z,4.63
2023-03-06T00:26:12.837Z,4.85
2023-03-06T00:29:17.624Z,4.23
2023-03-06T00:32:20.820Z,4.22
2023-03-06T00:35:23.438Z,4.97
2023-03-06T00:38:28.543Z,4.13
2023-03-06T00:41:32.015Z,4.43
2023-03-06T00:44:34.450Z,4.20
2023-03-06T00:47:37.867Z,4.05
2023-03-06T00:50:40.543Z,4.45
2023-03-06T00:53:43.048Z,4.18
2023-03-06T00:56:45.529Z,3.97
2023-03-06T00:59:48.239Z,4.18
2023-03-06T01:02:50.787Z,4.65
2023-03-06T01:05:53.475Z,4.30
2023-03-06T01:09:06.353Z,4.27
2023-03-06T01:12:09.315Z,4.18
2023-03-06T01:15:13.797Z,3.72
2023-03-06T01:18:16.260Z,3.67
2023-03-06T01:21:18.832Z,4.03
2023-03-06T01:24:21.306Z,6.28
2023-03-06T01:27:23.783Z,6.43
2023-03-06T01:30:27.460Z,5.10
2023-03-06T01:33:30.248Z,4.47
2023-03-06T01:36:32.910Z,5.20
2023-03-06T01:39:35.481Z,5.28
2023-03-06T01:42:38.172Z,4.88
2023-03-06T01:45:41.291Z,5.90
2023-03-06T01:48:45.012Z,5.73
2023-03-06T01:51:55.105Z,5.65
2023-03-06T01:55:02.866Z,5.90
2023-03-06T01:58:12.310Z,5.45
2023-03-06T02:01:16.049Z,5.53
2023-03-06T02:04:18.835Z,5.30
2023-03-06T02:07:21.659Z,5.70
2023-03-06T02:10:25.111Z,5.45
2023-03-06T02:13:29.347Z,5.20
2023-03-06T02:16:33.106Z,5.00
2023-03-06T02:19:50.296Z,5.43
2023-03-06T02:23:04.213Z,5.13
2023-03-06T02:26:09.404Z,5.57
2023-03-06T02:29:11.903Z,5.05
2023-03-06T02:32:14.485Z,4.60
2023-03-06T02:35:23.560Z,5.13
2023-03-06T02:38:37.753Z,5.05
2023-03-06T02:41:41.173Z,4.68
2023-03-06T02:44:44.272Z,4.80
2023-03-06T02:47:47.560Z,5.40
2023-03-06T02:50:50.227Z,4.70
2023-03-06T02:53:53.567Z,4.75
2023-03-06T02:56:56.945Z,4.30
2023-03-06T02:59:59.560Z,4.37
2023-03-06T03:03:02.572Z,4.20
2023-03-06T03:06:07.823Z,4.97
2023-03-06T03:09:12.016Z,4.22
2023-03-06T03:12:14.562Z,3.93
2023-03-06T03:15:17.656Z,4.05
2023-03-06T03:18:20.130Z,4.18
2023-03-06T03:21:23.642Z,4.00
2023-03-06T03:24:26.833Z,4.30
2023-03-06T03:27:30.402Z,3.83
2023-03-06T03:30:32.951Z,3.83
2023-03-06T03:33:36.341Z,3.60
2023-03-06T03:36:39.668Z,4.22
2023-03-06T03:39:44.274Z,4.13
2023-03-06T03:42:47.379Z,4.20
2023-03-06T03:45:49.941Z,4.65
2023-03-06T03:48:52.920Z,4.97
2023-03-06T03:51:55.775Z,5.17
2023-03-06T03:55:00.607Z,5.32
2023-03-06T03:58:05.614Z,5.63
2023-03-06T04:01:08.572Z,5.05
2023-03-06T04:04:12.315Z,5.40
2023-03-06T04:07:15.793Z,4.60
2023-03-06T04:10:18.272Z,4.95
2023-03-06T04:13:22.097Z,5.47
2023-03-06T04:16:28.057Z,4.25
2023-03-06T04:19:31.490Z,3.80
2023-03-06T04:22:34.559Z,3.80
2023-03-06T04:25:37.061Z,3.75
2023-03-06T04:28:42.444Z,3.63
2023-03-06T04:31:45.174Z,3.67
2023-03-06T04:34:47.841Z,4.30
2023-03-06T04:37:50.358Z,3.40
2023-03-06T04:40:54.900Z,3.85
2023-03-06T04:43:57.537Z,3.45
2023-03-06T04:47:00.002Z,4.20
2023-03-06T04:50:02.784Z,4.10
2023-03-06T04:53:05.437Z,3.97
2023-03-06T04:56:08.165Z,4.43
2023-03-06T04:59:10.696Z,4.38
2023-03-06T05:02:14.309Z,3.95
2023-03-06T05:05:18.008Z,4.40
2023-03-06T05:08:20.513Z,4.23
2023-03-06T05:11:23.239Z,4.78
2023-03-06T05:14:25.675Z,4.40
2023-03-06T05:17:28.290Z,4.40
2023-03-06T05:20:30.827Z,4.30
2023-03-06T05:23:36.262Z,4.40
2023-03-06T05:26:38.734Z,4.15
2023-03-06T05:29:41.294Z,4.63
2023-03-06T05:32:44.331Z,4.20
2023-03-06T05:35:48.211Z,4.10
2023-03-06T05:38:50.665Z,3.85
2023-03-06T05:41:53.254Z,4.18
2023-03-06T05:44:55.691Z,3.67
2023-03-06T05:47:59.032Z,3.90
2023-03-06T05:51:02.615Z,4.10
2023-03-06T05:54:05.062Z,4.03
2023-03-06T05:57:07.647Z,3.92
2023-03-06T06:00:11.249Z,3.80
2023-03-06T06:03:16.503Z,4.72
2023-03-06T06:06:18.924Z,4.63
2023-03-06T06:09:22.493Z,5.28
2023-03-06T06:12:26.741Z,4.20
2023-03-06T06:15:29.283Z,4.22
2023-03-06T06:18:31.792Z,4.18
2023-03-06T06:21:34.269Z,4.60
2023-03-06T06:24:37.023Z,5.97
2023-03-06T06:27:39.561Z,5.80
2023-03-06T06:30:42.026Z,5.63
2023-03-06T06:33:45.404Z,6.30
2023-03-06T06:36:48.305Z,7.30
2023-03-06T06:39:50.843Z,6.78
2023-03-06T06:42:53.366Z,7.80
2023-03-06T06:46:19.565Z,8.07
2023-03-06T06:49:21.338Z,8.10
2023-03-06T06:52:25.133Z,7.97
2023-03-06T06:55:27.907Z,8.45
2023-03-06T06:58:30.712Z,6.88
2023-03-06T07:01:33.187Z,7.93
2023-03-06T07:04:36.499Z,7.70
2023-03-06T07:07:39.131Z,7.47
2023-03-06T07:10:41.645Z,7.18
2023-03-06T07:13:46.032Z,7.13
2023-03-06T07:16:48.554Z,7.60
2023-03-06T07:19:51.115Z,7.07
2023-03-06T07:22:53.676Z,7.13
2023-03-06T07:25:57.580Z,6.10
2023-03-06T07:29:00.329Z,6.70
2023-03-06T07:32:02.952Z,6.50
2023-03-06T07:35:19.424Z,6.25
2023-03-06T07:38:22.745Z,7.18
2023-03-06T07:41:25.533Z,6.80
2023-03-06T07:44:28.486Z,7.75
2023-03-06T07:47:31.190Z,7.03
2023-03-06T07:50:35.095Z,6.43
2023-03-06T07:53:37.828Z,6.37
2023-03-06T07:56:40.297Z,5.63
2023-03-06T07:59:43.015Z,6.28
2023-03-06T08:02:45.793Z,6.40
2023-03-06T08:05:48.500Z,5.30
2023-03-06T08:08:52.576Z,5.20
2023-03-06T08:11:55.432Z,6.05
2023-03-06T08:14:57.901Z,5.13
2023-03-06T08:18:00.422Z,4.60
2023-03-06T08:21:09.275Z,7.15
2023-03-06T08:24:13.262Z,8.02
2023-03-06T08:27:15.703Z,7.43
2023-03-06T08:30:19.620Z,7.40
2023-03-06T08:33:22.835Z,6.13
2023-03-06T08:36:25.911Z,6.20
2023-03-06T08:39:28.339Z,6.38
2023-03-06T08:42:31.947Z,6.40
2023-03-06T08:45:34.486Z,6.63
2023-03-06T08:48:37.349Z,5.53
2023-03-06T08:51:39.894Z,5.78
2023-03-06T08:54:42.307Z,5.82
2023-03-06T08:57:45.465Z,5.97
2023-03-06T09:00:48.179Z,6.03
2023-03-06T09:03:53.837Z,5.30
2023-03-06T09:06:56.460Z,5.45
2023-03-06T09:09:59.434Z,5.60
2023-03-06T09:13:02.157Z,5.97
2023-03-06T09:16:05.206Z,5.47
2023-03-06T09:19:08.018Z,5.65
2023-03-06T09:22:10.752Z,6.22
2023-03-06T09:25:14.863Z,5.20
2023-03-06T09:28:17.966Z,6.40
2023-03-06T09:31:20.809Z,5.57
2023-03-06T09:34:23.377Z,5.43
2023-03-06T09:37:26.103Z,5.88
2023-03-06T09:41:01.952Z,6.50
2023-03-06T09:44:08.789Z,5.83
2023-03-06T09:47:27.641Z,6.07
2023-03-06T09:50:43.783Z,5.90
2023-03-06T09:54:09.996Z,6.28
2023-03-06T09:57:21.973Z,6.57
2023-03-06T10:00:33.704Z,7.27
2023-03-06T10:03:53.975Z,6.85
2023-03-06T10:07:29.946Z,6.32
2023-03-06T10:10:45.884Z,6.22
2023-03-06T10:13:52.959Z,8.00
2023-03-06T10:16:56.177Z,6.47
2023-03-06T10:19:59.170Z,6.20
2023-03-06T10:23:24.944Z,6.07
2023-03-06T10:26:37.862Z,5.88
2023-03-06T10:30:01.262Z,6.07
2023-03-06T10:33:10.104Z,5.60
2023-03-06T10:36:15.829Z,6.25
2023-03-06T10:39:21.953Z,6.50
2023-03-06T10:42:28.837Z,6.80
2023-03-06T10:45:43.763Z,6.50
2023-03-06T10:48:58.580Z,6.20
2023-03-06T10:52:04.276Z,6.55
2023-03-06T10:55:29.595Z,6.43
2023-03-06T10:58:36.669Z,6.78
2023-03-06T11:01:47.349Z,6.13
2023-03-06T11:04:53.389Z,6.70
2023-03-06T11:08:00.500Z,6.72
2023-03-06T11:11:05.582Z,7.03
2023-03-06T11:14:16.871Z,6.57
2023-03-06T11:17:32.043Z,6.78
2023-03-06T11:20:55.547Z,6.17
2023-03-06T11:24:04.257Z,7.13
2023-03-06T11:27:38.200Z,7.53
2023-03-06T11:30:49.535Z,6.45
2023-03-06T11:33:52.230Z,6.85
2023-03-06T11:36:58.478Z,7.10
2023-03-06T11:40:06.815Z,6.53
2023-03-06T11:43:27.507Z,6.75
2023-03-06T11:46:40.000Z,6.30
2023-03-06T11:50:10.011Z,7.20
2023-03-06T11:53:18.604Z,7.00
2023-03-06T11:56:35.690Z,6.05
2023-03-06T12:00:22.415Z,7.07
2023-03-06T12:03:39.324Z,7.25
2023-03-06T12:06:47.395Z,7.40
2023-03-06T12:10:02.814Z,6.70
2023-03-06T12:13:20.730Z,6.93
2023-03-06T12:16:46.948Z,6.95
2023-03-06T12:20:07.280Z,7.35
2023-03-06T12:23:23.388Z,7.40
2023-03-06T12:26:47.896Z,9.17
2023-03-06T12:30:18.408Z,6.70
2023-03-06T12:33:24.511Z,7.20
2023-03-06T12:36:46.455Z,6.40
2023-03-06T12:40:18.947Z,8.00
2023-03-06T12:43:30.654Z,9.37
2023-03-06T12:46:39.723Z,8.57
2023-03-06T12:49:48.560Z,9.73
2023-03-06T12:52:53.497Z,8.32
2023-03-06T12:55:58.521Z,7.93
2023-03-06T12:59:02.571Z,9.23
2023-03-06T13:02:34.226Z,7.22
2023-03-06T13:06:30.951Z,7.10
2023-03-06T13:10:02.793Z,7.35
2023-03-06T13:13:30.674Z,7.35
2023-03-06T13:16:34.583Z,7.10
2023-03-06T13:19:37.656Z,7.60
2023-03-06T13:22:43.009Z,7.05
2023-03-06T13:25:50.274Z,7.65
2023-03-06T13:28:55.496Z,7.38
2023-03-06T13:32:01.183Z,8.30
2023-03-06T13:35:32.578Z,7.63
2023-03-06T13:38:41.327Z,6.85
2023-03-06T13:41:56.090Z,7.07
2023-03-06T13:45:06.418Z,7.85
2023-03-06T13:48:45.560Z,7.33
2023-03-06T13:52:10.688Z,6.93
2023-03-06T13:55:45.244Z,7.78
2023-03-06T13:58:53.564Z,8.35
2023-03-06T14:02:37.098Z,7.70
2023-03-06T14:05:45.805Z,8.17
2023-03-06T14:08:48.577Z,7.50
2023-03-06T14:11:57.742Z,7.97
2023-03-06T14:15:12.243Z,8.10
2023-03-06T14:18:23.978Z,7.63
2023-03-06T14:21:40.166Z,7.60
2023-03-06T14:24:52.414Z,8.07
2023-03-06T14:27:56.456Z,7.93
2023-03-06T14:31:05.193Z,7.57
2023-03-06T14:34:15.499Z,7.88
2023-03-06T14:37:25.300Z,7.87
2023-03-06T14:40:32.214Z,8.10
2023-03-06T14:43:34.757Z,7.93
2023-03-06T14:46:37.716Z,7.55
2023-03-06T14:49:40.188Z,7.15
2023-03-06T14:52:43.232Z,7.20
2023-03-06T14:55:53.995Z,8.05
2023-03-06T14:58:59.372Z,7.38
2023-03-06T15:02:05.226Z,7.88
2023-03-06T15:05:19.902Z,7.00
2023-03-06T15:08:28.942Z,7.10
2023-03-06T15:11:51.031Z,7.90
2023-03-06T15:15:03.717Z,6.53
2023-03-06T15:18:28.635Z,7.20
2023-03-06T15:21:38.873Z,7.10
2023-03-06T15:24:41.353Z,6.80
2023-03-06T15:27:53.632Z,7.47
2023-03-06T15:31:02.300Z,7.38
2023-03-06T15:34:07.826Z,7.50
2023-03-06T15:37:27.671Z,7.28
2023-03-06T15:40:31.908Z,7.47
2023-03-06T15:43:39.408Z,7.43
2023-03-06T15:46:42.305Z,8.30
2023-03-06T15:49:44.839Z,7.88
2023-03-06T15:52:48.092Z,10.30
2023-03-06T15:55:52.042Z,10.23
2023-03-06T15:58:56.281Z,13.40
2023-03-06T16:02:20.249Z,11.07
2023-03-06T16:05:23.605Z,8.68
2023-03-06T16:08:26.431Z,7.82
2023-03-06T16:11:43.336Z,7.83
2023-03-06T16:14:47.914Z,8.20
2023-03-06T16:17:50.342Z,8.50
2023-03-06T16:20:52.946Z,8.45
2023-03-06T16:23:55.711Z,8.80
2023-03-06T16:27:01.270Z,8.77
2023-03-06T16:30:04.954Z,9.27
2023-03-06T16:33:10.557Z,8.73
2023-03-06T16:36:16.562Z,8.73
2023-03-06T16:39:24.040Z,8.63
2023-03-06T16:42:26.565Z,9.10
2023-03-06T16:45:29.374Z,9.55
2023-03-06T16:48:32.851Z,9.88
2023-03-06T16:51:37.645Z,9.85
2023-03-06T16:54:40.049Z,10.25
2023-03-06T16:57:42.538Z,9.87
2023-03-06T17:00:45.930Z,9.98
2023-03-06T17:03:48.519Z,9.75
2023-03-06T17:06:52.873Z,13.60
2023-03-06T17:09:55.620Z,11.77
2023-03-06T17:12:58.173Z,11.53
2023-03-06T17:16:02.090Z,11.55
2023-03-06T17:19:05.006Z,11.02
2023-03-06T17:22:07.654Z,10.15
2023-03-06T17:25:10.678Z,10.68
2023-03-06T17:28:13.477Z,9.13
2023-03-06T17:31:22.252Z,8.73
2023-03-06T17:34:25.211Z,9.18
2023-03-06T17:37:27.956Z,9.23
2023-03-06T17:40:30.716Z,9.85
2023-03-06T17:43:34.150Z,10.27
2023-03-06T17:46:36.882Z,9.63
2023-03-06T17:49:40.298Z,9.00
2023-03-06T17:52:44.041Z,10.38
2023-03-06T17:55:46.604Z,10.13
2023-03-06T17:58:49.156Z,10.80
2023-03-06T18:01:51.943Z,10.93
2023-03-06T18:04:56.416Z,11.52
2023-03-06T18:07:59.059Z,12.55
2023-03-06T18:11:06.240Z,13.30
2023-03-06T18:14:09.600Z,12.83
2023-03-06T18:17:12.099Z,12.57
2023-03-06T18:20:14.862Z,13.05
2023-03-06T18:23:18.021Z,11.40
2023-03-06T18:26:23.560Z,12.05
2023-03-06T18:29:26.294Z,13.30
2023-03-06T18:32:29.265Z,14.13
2023-03-06T18:35:33.456Z,13.57
2023-03-06T18:38:37.860Z,13.23
2023-03-06T18:41:41.469Z,14.07
2023-03-06T18:44:48.184Z,14.53
2023-03-06T18:47:50.851Z,17.77
2023-03-06T18:50:53.828Z,15.38
2023-03-06T18:53:58.193Z,14.48
2023-03-06T18:57:01.091Z,12.68
2023-03-06T19:00:06.532Z,15.17
2023-03-06T19:03:11.074Z,14.18
2023-03-06T19:06:16.949Z,11.50
2023-03-06T19:09:19.618Z,13.77
2023-03-06T19:12:22.372Z,14.53
2023-03-06T19:15:25.136Z,15.80
2023-03-06T19:18:29.226Z,16.55
2023-03-06T19:21:31.990Z,20.00
2023-03-06T19:24:35.422Z,17.38
2023-03-06T19:27:39.194Z,19.10
2023-03-06T19:30:41.889Z,20.70
2023-03-06T19:33:45.052Z,19.60
2023-03-06T19:36:50.165Z,18.05
2023-03-06T19:39:52.592Z,18.50
2023-03-06T19:42:55.703Z,18.60
2023-03-06T19:45:58.505Z,19.27
2023-03-06T19:49:09.658Z,17.83
2023-03-06T19:52:12.699Z,17.58
2023-03-06T19:55:15.733Z,19.37
2023-03-06T19:58:18.401Z,18.80
2023-03-06T20:01:23.132Z,17.67
2023-03-06T20:04:26.306Z,18.48
2023-03-06T20:07:29.057Z,17.60
2023-03-06T20:10:31.473Z,19.03
2023-03-06T20:13:34.160Z,18.23
2023-03-06T20:16:37.353Z,17.58
2023-03-06T20:19:40.230Z,16.95
2023-03-06T20:22:43.336Z,17.23
2023-03-06T20:25:46.550Z,16.90
2023-03-06T20:28:49.978Z,17.25
2023-03-06T20:31:54.930Z,16.55
2023-03-06T20:34:57.879Z,16.08
2023-03-06T20:38:00.765Z,16.23
2023-03-06T20:41:03.618Z,15.35
2023-03-06T20:44:08.467Z,16.52
2023-03-06T20:47:11.243Z,16.10
2023-03-06T20:50:15.285Z,16.20
2023-03-06T20:53:18.055Z,14.57
2023-03-06T20:56:25.494Z,14.10
2023-03-06T20:59:28.329Z,15.57
2023-03-06T21:02:31.663Z,14.82
2023-03-06T21:05:34.712Z,14.87
2023-03-06T21:08:37.863Z,15.95
2023-03-06T21:11:41.068Z,16.30
2023-03-06T21:14:44.318Z,16.33
2023-03-06T21:17:46.715Z,15.80
2023-03-06T21:20:49.480Z,14.77
2023-03-06T21:23:53.140Z,15.45
2023-03-06T21:26:55.794Z,15.32
2023-03-06T21:29:58.408Z,15.40
2023-03-06T21:33:00.930Z,15.53
2023-03-06T21:36:03.942Z,15.35
2023-03-06T21:39:06.514Z,16.48
2023-03-06T21:42:08.944Z,16.00
2023-03-06T21:45:12.089Z,16.87
2023-03-06T21:48:15.828Z,17.60
2023-03-06T21:51:20.915Z,16.70
2023-03-06T21:54:23.503Z,14.40
2023-03-06T21:57:25.991Z,15.87
2023-03-06T22:00:28.669Z,14.93
2023-03-06T22:03:31.107Z,14.25
2023-03-06T22:06:33.675Z,13.30
2023-03-06T22:09:37.316Z,13.55
2023-03-06T22:12:40.239Z,14.07
2023-03-06T22:15:53.166Z,14.65
2023-03-06T22:18:56.940Z,13.50
2023-03-06T22:21:59.744Z,12.27
2023-03-06T22:25:02.489Z,12.53
2023-03-06T22:28:05.430Z,13.20
2023-03-06T22:31:19.449Z,13.50
2023-03-06T22:34:21.930Z,13.23
2023-03-06T22:37:24.378Z,13.70
2023-03-06T22:40:26.904Z,14.13
2023-03-06T22:43:30.077Z,13.88
2023-03-06T22:46:33.005Z,13.38
2023-03-06T22:49:35.460Z,16.27
2023-03-06T22:52:38.096Z,19.40
2023-03-06T22:55:40.650Z,20.17
2023-03-06T22:58:44.845Z,18.65
2023-03-06T23:01:47.388Z,19.77
2023-03-06T23:04:53.459Z,19.63
2023-03-06T23:07:56.225Z,18.70
2023-03-06T23:10:58.650Z,18.70
2023-03-06T23:14:20.085Z,17.52
2023-03-06T23:17:41.608Z,18.13
2023-03-06T23:21:11.437Z,17.07
2023-03-06T23:24:36.780Z,17.50
2023-03-06T23:27:39.320Z,16.92
2023-03-06T23:30:42.235Z,18.05
2023-03-06T23:33:45.453Z,17.53
2023-03-06T23:36:48.540Z,17.63
2023-03-06T23:39:51.056Z,18.83
2023-03-06T23:42:53.660Z,20.30
2023-03-06T23:45:56.492Z,20.13
2023-03-06T23:48:59.110Z,20.48
2023-03-06T23:52:01.623Z,20.73
2023-03-06T23:55:05.596Z,20.83
2023-03-06T23:58:08.298Z,19.07
